createdAt,value
2018-05-01T00:00:46.365Z,87.93
2018-05-01T00:01:46.554Z,87.45
2018-05-01T00:02:46.702Z,87.64
2018-05-01T00:03:46.865Z,87.74
2018-05-01T00:04:47.028Z,88.31
2018-05-01T00:05:47.191Z,87.64
2018-05-01T00:06:47.358Z,88.59
2018-05-01T00:09:29.647Z,87.64
2018-05-01T00:10:29.811Z,87.35
2018-05-01T00:11:29.978Z,88.21
2018-05-01T00:12:30.139Z,87.26
2018-05-01T00:13:30.297Z,87.83
2018-05-01T00:14:30.455Z,86.88
2018-05-01T00:15:30.621Z,87.07
2018-05-01T00:16:30.788Z,85.78
2018-05-01T00:17:30.955Z,85.21
2018-05-01T00:18:31.117Z,86.07
2018-05-01T00:19:31.284Z,86.83
2018-05-01T00:20:31.518Z,86.02
2018-05-01T00:21:31.605Z,85.41
2018-05-01T00:22:31.872Z,86.21
2018-05-01T00:23:31.930Z,84.55
2018-05-01T00:26:14.508Z,83.21
2018-05-01T00:27:14.702Z,84.16
2018-05-01T00:28:14.835Z,84.45
2018-05-01T00:29:14.993Z,83.31
2018-05-01T00:30:15.157Z,82.17
2018-05-01T00:31:15.321Z,82.54
2018-05-01T00:32:15.488Z,83.12
2018-05-01T00:33:15.651Z,83.88
2018-05-01T00:34:15.815Z,84.20
2018-05-01T00:35:15.973Z,84.16
2018-05-01T00:36:16.176Z,83.59
2018-05-01T00:37:16.293Z,83.12
2018-05-01T00:38:16.456Z,83.50
2018-05-01T00:39:16.624Z,82.49
2018-05-01T00:40:16.785Z,81.12
2018-05-01T00:42:59.063Z,81.59
2018-05-01T00:43:59.232Z,81.63
2018-05-01T00:44:59.379Z,81.12
2018-05-01T00:45:59.550Z,81.02
2018-05-01T00:46:59.713Z,79.88
2018-05-01T00:47:59.867Z,80.16
2018-05-01T00:49:00.029Z,78.44
2018-05-01T00:50:00.189Z,78.25
2018-05-01T00:51:00.354Z,78.64
2018-05-01T00:52:00.517Z,79.21
2018-05-01T00:53:00.709Z,79.21
2018-05-01T00:54:00.844Z,79.97
2018-05-01T00:55:01.017Z,80.16
2018-05-01T00:56:01.166Z,80.39
2018-05-01T00:57:01.331Z,81.35
2018-05-01T00:59:43.866Z,77.87
2018-05-01T01:00:44.070Z,78.25
2018-05-01T01:01:44.226Z,77.59
2018-05-01T01:02:44.383Z,78.35
2018-05-01T01:03:44.579Z,78.44
2018-05-01T01:04:44.712Z,78.44
2018-05-01T01:05:44.868Z,79.40
2018-05-01T01:06:45.038Z,79.59
2018-05-01T01:07:45.190Z,79.15
2018-05-01T01:08:45.353Z,78.54
2018-05-01T01:11:27.631Z,82.07
2018-05-01T01:12:27.799Z,80.64
2018-05-01T01:13:27.976Z,79.88
2018-05-01T01:14:28.121Z,79.78
2018-05-01T01:15:28.297Z,78.25
2018-05-01T01:16:28.453Z,81.68
2018-05-01T01:17:28.622Z,81.21
2018-05-01T01:18:28.780Z,82.17
2018-05-01T01:19:28.940Z,85.41
2018-05-01T01:20:29.121Z,87.21
2018-05-01T01:21:29.275Z,88.93
2018-05-01T01:22:29.424Z,87.98
2018-05-01T01:23:29.604Z,88.55
2018-05-01T01:24:29.788Z,89.22
2018-05-01T01:25:29.940Z,89.22
2018-05-01T01:28:12.271Z,89.98
2018-05-01T01:29:12.445Z,88.84
2018-05-01T01:30:12.602Z,89.03
2018-05-01T01:31:12.761Z,89.22
2018-05-01T01:32:12.929Z,89.98
2018-05-01T01:33:13.092Z,91.31
2018-05-01T01:34:13.267Z,91.17
2018-05-01T01:35:13.415Z,91.98
2018-05-01T01:36:13.580Z,91.98
2018-05-01T01:37:13.734Z,92.89
2018-05-01T01:38:14.774Z,94.60
2018-05-01T01:39:14.022Z,94.03
2018-05-01T01:40:14.186Z,94.60
2018-05-01T01:41:14.391Z,94.51
2018-05-01T01:42:14.556Z,93.37
2018-05-01T01:44:56.818Z,92.98
2018-05-01T01:45:56.978Z,92.60
2018-05-01T01:46:57.156Z,93.13
2018-05-01T01:47:57.328Z,93.32
2018-05-01T01:48:57.488Z,95.03
2018-05-01T01:49:57.647Z,95.60
2018-05-01T01:50:57.818Z,95.51
2018-05-01T01:51:57.971Z,96.65
2018-05-01T01:52:58.178Z,96.46
2018-05-01T01:53:58.301Z,96.27
2018-05-01T01:56:40.552Z,96.46
2018-05-01T01:57:40.716Z,96.27
2018-05-01T01:58:40.885Z,96.55
2018-05-01T01:59:41.043Z,96.08
2018-05-01T02:00:41.225Z,96.46
2018-05-01T02:01:41.373Z,96.27
2018-05-01T02:02:41.530Z,95.98
2018-05-01T02:03:41.693Z,95.60
2018-05-01T02:04:41.863Z,96.08
2018-05-01T02:05:42.017Z,95.41
2018-05-01T02:06:42.176Z,94.93
2018-05-01T02:07:42.335Z,95.32
2018-05-01T02:08:42.495Z,95.32
2018-05-01T02:09:42.656Z,95.51
2018-05-01T02:10:42.823Z,94.56
2018-05-01T02:13:25.142Z,92.22
2018-05-01T02:14:25.275Z,91.08
2018-05-01T02:15:25.440Z,91.17
2018-05-01T02:16:25.606Z,90.89
2018-05-01T02:17:25.769Z,90.61
2018-05-01T02:18:25.928Z,90.51
2018-05-01T02:19:26.091Z,90.22
2018-05-01T02:20:26.254Z,90.51
2018-05-01T02:21:26.407Z,90.99
2018-05-01T02:22:26.573Z,90.70
2018-05-01T02:23:26.750Z,90.03
2018-05-01T02:24:26.946Z,88.89
2018-05-01T02:25:27.224Z,88.89
2018-05-01T02:26:27.208Z,88.23
2018-05-01T02:27:27.378Z,88.04
2018-05-01T02:30:09.938Z,85.28
2018-05-01T02:31:10.100Z,85.66
2018-05-01T02:32:10.251Z,83.81
2018-05-01T02:33:10.503Z,82.00
2018-05-01T02:34:10.590Z,82.00
2018-05-01T02:35:10.756Z,80.00
2018-05-01T02:36:10.916Z,79.33
2018-05-01T02:37:11.082Z,80.10
2018-05-01T02:38:11.285Z,78.77
2018-05-01T02:39:11.421Z,78.48
2018-05-01T02:41:54.031Z,81.43
2018-05-01T02:42:54.197Z,81.24
2018-05-01T02:43:54.369Z,82.95
2018-05-01T02:44:54.542Z,81.62
2018-05-01T02:45:55.261Z,82.48
2018-05-01T02:46:54.791Z,82.19
2018-05-01T02:47:54.955Z,83.52
2018-05-01T02:48:55.116Z,84.61
2018-05-01T02:49:55.291Z,84.80
2018-05-01T02:50:55.490Z,84.04
2018-05-01T02:51:55.608Z,82.09
2018-05-01T02:52:55.774Z,82.86
2018-05-01T02:53:55.932Z,82.57
2018-05-01T02:54:56.091Z,82.86
2018-05-01T02:55:56.250Z,83.56
2018-05-01T03:01:16.845Z,85.47
2018-05-01T03:02:17.005Z,85.66
2018-05-01T03:03:17.182Z,83.85
2018-05-01T03:04:18.200Z,81.90
2018-05-01T03:05:17.497Z,82.28
2018-05-01T03:06:18.185Z,81.18
2018-05-01T03:07:17.864Z,81.09
2018-05-01T03:08:18.022Z,82.00
2018-05-01T03:09:18.194Z,80.76
2018-05-01T03:10:18.365Z,80.00
2018-05-01T03:11:18.613Z,79.33
2018-05-01T03:12:18.685Z,79.24
2018-05-01T03:13:18.848Z,80.86
2018-05-01T03:14:19.008Z,79.81
2018-05-01T03:15:19.167Z,80.19
2018-05-01T03:18:01.707Z,78.00
2018-05-01T03:19:01.871Z,77.81
2018-05-01T03:20:02.033Z,78.67
2018-05-01T03:21:02.206Z,78.48
2018-05-01T03:22:02.359Z,78.77
2018-05-01T03:23:02.526Z,79.38
2018-05-01T03:24:02.688Z,80.13
2018-05-01T03:25:02.853Z,78.77
2018-05-01T03:26:03.003Z,76.29
2018-05-01T03:27:03.176Z,77.72
2018-05-01T03:28:03.325Z,77.34
2018-05-01T03:29:03.494Z,74.96
2018-05-01T03:30:03.651Z,73.34
2018-05-01T03:31:03.817Z,75.24
2018-05-01T03:32:04.002Z,75.53
2018-05-01T03:34:46.245Z,74.10
2018-05-01T03:35:46.454Z,74.29
2018-05-01T03:36:46.605Z,74.01
2018-05-01T03:37:46.747Z,75.15
2018-05-01T03:38:46.902Z,76.10
2018-05-01T03:39:47.086Z,76.01
2018-05-01T03:40:47.247Z,74.67
2018-05-01T03:41:47.410Z,73.91
2018-05-01T03:42:47.572Z,74.10
2018-05-01T03:43:47.734Z,70.68
2018-05-01T03:44:47.904Z,71.41
2018-05-01T03:45:48.049Z,71.41
2018-05-01T03:46:48.210Z,71.06
2018-05-01T03:47:48.361Z,70.77
2018-05-01T03:48:49.269Z,71.15
2018-05-01T03:51:20.783Z,69.88
2018-05-01T03:52:20.944Z,68.96
2018-05-01T03:53:21.108Z,69.60
2018-05-01T03:54:21.270Z,65.41
2018-05-01T03:55:21.435Z,64.56
2018-05-01T03:56:21.596Z,65.70
2018-05-01T03:57:21.759Z,63.70
2018-05-01T03:58:21.921Z,61.13
2018-05-01T03:59:22.082Z,61.61
2018-05-01T04:00:22.245Z,62.85
2018-05-01T04:02:54.517Z,63.60
2018-05-01T04:03:54.685Z,64.56
2018-05-01T04:04:54.898Z,63.79
2018-05-01T04:05:54.998Z,64.46
2018-05-01T04:06:55.136Z,61.71
2018-05-01T04:07:55.306Z,62.56
2018-05-01T04:08:55.476Z,63.42
2018-05-01T04:09:55.640Z,63.51
2018-05-01T04:10:55.829Z,64.46
2018-05-01T04:11:55.948Z,65.73
2018-05-01T04:12:56.194Z,65.60
2018-05-01T04:13:56.265Z,66.30
2018-05-01T04:14:56.428Z,65.80
2018-05-01T04:15:56.657Z,64.18
2018-05-01T04:16:56.754Z,63.79
2018-05-01T04:19:39.301Z,65.45
2018-05-01T04:20:39.464Z,65.45
2018-05-01T04:21:39.636Z,62.49
2018-05-01T04:22:39.802Z,66.49
2018-05-01T04:23:39.952Z,68.01
2018-05-01T04:24:40.131Z,67.16
2018-05-01T04:25:40.278Z,66.59
2018-05-01T04:26:40.441Z,65.83
2018-05-01T04:27:40.603Z,67.07
2018-05-01T04:28:40.759Z,67.63
2018-05-01T04:29:40.923Z,68.40
2018-05-01T04:30:41.082Z,67.63
2018-05-01T04:31:42.026Z,67.54
2018-05-01T04:32:41.436Z,67.35
2018-05-01T04:33:41.596Z,66.78
2018-05-01T04:38:32.202Z,64.18
2018-05-01T04:39:32.388Z,64.59
2018-05-01T04:40:32.490Z,65.64
2018-05-01T04:41:32.655Z,66.59
2018-05-01T04:42:32.818Z,68.21
2018-05-01T04:43:32.979Z,68.40
2018-05-01T04:44:33.142Z,69.54
2018-05-01T04:45:33.312Z,68.01
2018-05-01T04:46:33.477Z,66.97
2018-05-01T04:47:33.644Z,67.16
2018-05-01T04:48:33.884Z,68.40
2018-05-01T04:49:33.960Z,68.68
2018-05-01T04:50:34.150Z,69.25
2018-05-01T04:51:35.024Z,68.49
2018-05-01T04:52:34.475Z,67.63
2018-05-01T04:55:16.684Z,65.73
2018-05-01T04:56:16.846Z,63.79
2018-05-01T04:57:17.010Z,63.23
2018-05-01T04:58:17.167Z,62.21
2018-05-01T04:59:17.338Z,64.97
2018-05-01T05:00:17.495Z,64.40
2018-05-01T05:01:17.663Z,66.49
2018-05-01T05:02:17.828Z,65.45
2018-05-01T05:03:17.982Z,64.50
2018-05-01T05:04:18.131Z,62.30
2018-05-01T05:05:18.299Z,64.40
2018-05-01T05:06:18.473Z,63.73
2018-05-01T05:07:18.631Z,61.45
2018-05-01T05:08:18.794Z,62.49
2018-05-01T05:09:18.963Z,62.12
2018-05-01T05:12:01.550Z,62.97
2018-05-01T05:13:01.720Z,61.93
2018-05-01T05:14:01.878Z,61.83
2018-05-01T05:15:02.067Z,65.73
2018-05-01T05:16:02.188Z,66.91
2018-05-01T05:17:02.347Z,67.57
2018-05-01T05:18:02.512Z,68.77
2018-05-01T05:19:02.669Z,67.92
2018-05-01T05:20:02.853Z,68.15
2018-05-01T05:21:03.039Z,70.33
2018-05-01T05:22:03.205Z,71.57
2018-05-01T05:23:03.374Z,69.10
2018-05-01T05:24:03.529Z,67.76
2018-05-01T05:25:03.685Z,68.49
2018-05-01T05:26:03.880Z,67.16
2018-05-01T05:28:46.103Z,69.63
2018-05-01T05:29:46.260Z,68.77
2018-05-01T05:30:46.472Z,70.49
2018-05-01T05:31:46.575Z,70.10
2018-05-01T05:32:46.735Z,68.49
2018-05-01T05:33:46.901Z,68.40
2018-05-01T05:34:47.068Z,68.01
2018-05-01T05:35:47.228Z,65.92
2018-05-01T05:36:47.432Z,64.31
2018-05-01T05:37:47.576Z,64.59
2018-05-01T05:40:30.134Z,68.21
2018-05-01T05:41:30.335Z,69.44
2018-05-01T05:42:30.520Z,69.29
2018-05-01T05:43:30.682Z,70.43
2018-05-01T05:44:30.850Z,67.44
2018-05-01T05:45:31.000Z,66.78
2018-05-01T05:46:31.161Z,65.92
2018-05-01T05:47:31.326Z,64.97
2018-05-01T05:48:31.528Z,65.54
2018-05-01T05:49:31.674Z,61.83
2018-05-01T05:50:31.847Z,66.59
2018-05-01T05:51:32.063Z,67.10
2018-05-01T05:52:32.368Z,68.52
2018-05-01T05:53:32.350Z,66.59
2018-05-01T05:54:32.495Z,64.69
2018-05-01T05:57:14.897Z,64.87
2018-05-01T05:58:15.010Z,65.83
2018-05-01T05:59:15.172Z,65.54
2018-05-01T06:00:15.336Z,63.07
2018-05-01T06:01:15.498Z,62.30
2018-05-01T06:02:15.683Z,67.47
2018-05-01T06:03:15.839Z,65.29
2018-05-01T06:04:15.961Z,74.75
2018-05-01T06:05:16.119Z,73.32
2018-05-01T06:06:16.287Z,74.84
2018-05-01T06:08:58.552Z,71.98
2018-05-01T06:09:58.715Z,72.37
2018-05-01T06:10:58.874Z,72.17
2018-05-01T06:11:59.044Z,70.37
2018-05-01T06:12:59.191Z,69.99
2018-05-01T06:13:59.352Z,69.85
2018-05-01T06:14:59.519Z,66.43
2018-05-01T06:15:59.697Z,66.05
2018-05-01T06:16:59.935Z,63.39
2018-05-01T06:17:59.953Z,64.40
2018-05-01T06:19:00.111Z,64.21
2018-05-01T06:20:00.270Z,62.30
2018-05-01T06:21:00.454Z,61.45
2018-05-01T06:22:00.625Z,62.02
2018-05-01T06:23:00.758Z,64.81
2018-05-01T06:25:43.021Z,65.48
2018-05-01T06:26:44.058Z,65.95
2018-05-01T06:27:43.347Z,66.53
2018-05-01T06:28:43.520Z,65.00
2018-05-01T06:29:43.667Z,63.86
2018-05-01T06:30:43.854Z,63.35
2018-05-01T06:31:43.992Z,63.35
2018-05-01T06:32:44.156Z,63.64
2018-05-01T06:33:44.334Z,60.21
2018-05-01T06:34:44.508Z,60.88
2018-05-01T06:37:26.892Z,60.41
2018-05-01T06:38:26.975Z,59.64
2018-05-01T06:39:27.133Z,57.55
2018-05-01T06:40:27.295Z,58.59
2018-05-01T06:41:27.471Z,59.58
2018-05-01T06:42:27.632Z,61.77
2018-05-01T06:43:27.793Z,64.90
2018-05-01T06:44:27.997Z,65.48
2018-05-01T06:45:28.145Z,66.72
2018-05-01T06:46:28.306Z,67.99
2018-05-01T06:47:28.494Z,68.08
2018-05-01T06:48:28.633Z,67.22
2018-05-01T06:49:28.789Z,69.60
2018-05-01T06:50:28.984Z,71.98
2018-05-01T06:51:29.121Z,75.99
2018-05-01T06:54:11.385Z,76.37
2018-05-01T06:55:11.655Z,75.60
2018-05-01T06:56:11.739Z,73.61
2018-05-01T06:57:11.879Z,73.03
2018-05-01T06:58:12.029Z,74.75
2018-05-01T06:59:12.207Z,75.74
2018-05-01T07:00:12.918Z,76.21
2018-05-01T07:01:12.574Z,76.88
2018-05-01T07:02:12.738Z,75.84
2018-05-01T07:03:12.899Z,74.08
2018-05-01T07:04:13.081Z,71.80
2018-05-01T07:05:13.235Z,71.22
2018-05-01T07:06:13.390Z,73.99
2018-05-01T07:07:13.553Z,72.94
2018-05-01T07:08:13.719Z,74.56
2018-05-01T07:10:55.967Z,73.99
2018-05-01T07:11:56.145Z,72.75
2018-05-01T07:12:56.306Z,72.27
2018-05-01T07:13:56.464Z,70.08
2018-05-01T07:14:56.628Z,72.56
2018-05-01T07:15:56.848Z,73.22
2018-05-01T07:16:56.944Z,71.67
2018-05-01T07:17:57.106Z,71.57
2018-05-01T07:18:57.272Z,69.48
2018-05-01T07:19:57.434Z,68.62
2018-05-01T07:22:29.685Z,70.05
2018-05-01T07:23:29.852Z,69.29
2018-05-01T07:24:30.013Z,66.81
2018-05-01T07:25:31.714Z,67.57
2018-05-01T07:26:30.375Z,68.15
2018-05-01T07:27:30.555Z,66.81
2018-05-01T07:28:30.698Z,68.81
2018-05-01T07:29:31.728Z,69.38
2018-05-01T07:30:38.709Z,69.19
2018-05-01T07:31:31.117Z,70.24
2018-05-01T07:32:31.281Z,70.81
2018-05-01T07:33:31.439Z,66.05
2018-05-01T07:34:31.715Z,65.00
2018-05-01T07:35:31.773Z,63.92
2018-05-01T07:36:31.931Z,62.69
2018-05-01T07:37:32.097Z,62.43
2018-05-01T07:38:32.251Z,63.67
2018-05-01T07:39:32.416Z,67.00
2018-05-01T07:40:32.608Z,66.43
2018-05-01T07:41:32.838Z,67.29
2018-05-01T07:42:32.975Z,67.38
2018-05-01T07:43:33.771Z,66.91
2018-05-01T07:44:33.310Z,67.19
2018-05-01T07:50:59.053Z,65.48
2018-05-01T07:51:58.777Z,65.86
2018-05-01T07:52:58.941Z,66.53
2018-05-01T07:53:59.950Z,67.61
2018-05-01T07:54:59.235Z,68.62
2018-05-01T07:55:59.405Z,67.38
2018-05-01T07:56:59.575Z,68.94
2018-05-01T07:57:59.728Z,68.62
2018-05-01T07:58:59.913Z,68.56
2018-05-01T08:00:00.067Z,68.43
2018-05-01T08:01:00.226Z,66.43
2018-05-01T08:02:00.408Z,64.81
2018-05-01T08:03:00.562Z,65.95
2018-05-01T08:04:00.713Z,68.05
2018-05-01T08:05:00.903Z,69.00
2018-05-01T08:07:33.207Z,73.66
2018-05-01T08:08:33.382Z,75.38
2018-05-01T08:09:33.546Z,73.85
2018-05-01T08:10:33.699Z,73.85
2018-05-01T08:11:33.860Z,74.56
2018-05-01T08:12:34.020Z,72.81
2018-05-01T08:13:34.181Z,72.33
2018-05-01T08:14:35.196Z,71.95
2018-05-01T08:15:34.488Z,70.33
2018-05-01T08:16:34.647Z,73.89
2018-05-01T08:17:34.819Z,73.00
2018-05-01T08:18:34.981Z,76.18
2018-05-01T08:19:35.149Z,74.71
2018-05-01T08:20:35.318Z,76.08
2018-05-01T08:21:35.512Z,76.37
2018-05-01T08:24:18.045Z,80.55
2018-05-01T08:25:18.201Z,80.75
2018-05-01T08:26:18.356Z,79.85
2018-05-01T08:27:18.523Z,76.81
2018-05-01T08:28:19.261Z,76.81
2018-05-01T08:29:18.798Z,78.04
2018-05-01T08:30:18.962Z,76.90
2018-05-01T08:31:19.127Z,76.90
2018-05-01T08:32:19.289Z,74.52
2018-05-01T08:33:19.456Z,75.95
2018-05-01T08:35:52.100Z,77.37
2018-05-01T08:36:52.139Z,77.66
2018-05-01T08:37:52.285Z,78.33
2018-05-01T08:38:52.450Z,77.98
2018-05-01T08:39:52.609Z,78.14
2018-05-01T08:40:52.827Z,75.85
2018-05-01T08:41:52.989Z,75.67
2018-05-01T08:42:53.147Z,78.04
2018-05-01T08:43:53.303Z,78.17
2018-05-01T08:44:53.456Z,78.75
2018-05-01T08:47:36.021Z,78.85
2018-05-01T08:48:36.197Z,77.03
2018-05-01T08:49:36.355Z,77.98
2018-05-01T08:50:36.514Z,78.27
2018-05-01T08:51:36.689Z,78.85
2018-05-01T08:52:36.865Z,77.98
2018-05-01T08:53:37.030Z,80.36
2018-05-01T08:54:37.194Z,81.70
2018-05-01T08:55:38.250Z,80.75
2018-05-01T08:56:37.531Z,82.37
2018-05-01T08:59:09.814Z,81.89
2018-05-01T09:00:09.975Z,83.41
2018-05-01T09:01:10.136Z,83.13
2018-05-01T09:02:10.303Z,84.17
2018-05-01T09:03:10.465Z,83.61
2018-05-01T09:04:10.652Z,84.08
2018-05-01T09:05:10.789Z,85.60
2018-05-01T09:06:11.028Z,83.03
2018-05-01T09:07:11.122Z,83.98
2018-05-01T09:08:11.329Z,81.41
2018-05-01T09:09:11.515Z,84.36
2018-05-01T09:10:11.669Z,85.32
2018-05-01T09:11:11.823Z,88.56
2018-05-01T09:12:11.981Z,90.56
2018-05-01T09:13:12.240Z,89.84
2018-05-01T09:15:44.475Z,92.50
2018-05-01T09:16:44.846Z,89.89
2018-05-01T09:17:44.905Z,89.94
2018-05-01T09:18:45.058Z,90.56
2018-05-01T09:19:45.187Z,89.32
2018-05-01T09:20:45.316Z,90.79
2018-05-01T09:21:45.466Z,91.74
2018-05-01T09:22:45.631Z,90.84
2018-05-01T09:23:45.988Z,90.46
2018-05-01T09:24:46.258Z,91.55
2018-05-01T09:25:46.318Z,93.55
2018-05-01T09:26:46.480Z,93.17
2018-05-01T09:27:46.587Z,94.60
2018-05-01T09:28:46.801Z,95.70
2018-05-01T09:29:46.865Z,95.51
2018-05-01T09:32:29.167Z,93.84
2018-05-01T09:33:29.570Z,90.88
2018-05-01T09:34:29.577Z,89.64
2018-05-01T09:35:29.688Z,89.07
2018-05-01T09:36:29.852Z,88.50
2018-05-01T09:37:30.178Z,88.98
2018-05-01T09:38:30.220Z,92.32
2018-05-01T09:39:30.444Z,92.79
2018-05-01T09:40:30.538Z,92.41
2018-05-01T09:41:30.760Z,92.12
2018-05-01T09:42:30.918Z,93.46
2018-05-01T09:43:31.084Z,93.70
2018-05-01T09:44:31.253Z,94.70
2018-05-01T09:45:31.400Z,94.98
2018-05-01T09:46:31.654Z,95.32
2018-05-01T09:49:13.814Z,94.74
2018-05-01T09:50:14.019Z,94.84
2018-05-01T09:51:14.146Z,95.41
2018-05-01T09:52:14.364Z,95.41
2018-05-01T09:53:14.655Z,95.41
2018-05-01T09:54:15.098Z,96.27
2018-05-01T09:55:14.778Z,95.98
2018-05-01T09:56:15.003Z,96.65
2018-05-01T09:57:15.181Z,95.70
2018-05-01T09:58:15.351Z,96.98
2018-05-01T09:59:15.559Z,91.46
2018-05-01T10:00:15.811Z,94.98
2018-05-01T10:01:16.116Z,94.12
2018-05-01T10:02:18.701Z,94.03
2018-05-01T10:03:16.185Z,94.37
2018-05-01T10:05:58.380Z,95.70
2018-05-01T10:06:58.630Z,96.32
2018-05-01T10:07:58.707Z,96.70
2018-05-01T10:08:59.060Z,96.70
2018-05-01T10:09:58.966Z,96.80
2018-05-01T10:10:59.822Z,93.46
2018-05-01T10:11:59.554Z,92.88
2018-05-01T10:12:59.454Z,93.93
2018-05-01T10:13:59.740Z,93.84
2018-05-01T10:14:59.849Z,93.17
2018-05-01T10:16:00.169Z,91.46
2018-05-01T10:17:00.190Z,89.78
2018-05-01T10:18:00.401Z,90.26
2018-05-01T10:19:01.273Z,89.74
2018-05-01T10:20:00.773Z,89.64
2018-05-01T10:24:02.208Z,86.73
2018-05-01T10:25:01.473Z,79.48
2018-05-01T10:26:02.601Z,79.67
2018-05-01T10:27:01.790Z,78.72
2018-05-01T10:28:02.210Z,76.14
2018-05-01T10:29:02.220Z,75.85
2018-05-01T10:30:02.327Z,70.32
2018-05-01T10:31:02.405Z,73.75
2018-05-01T10:32:02.522Z,72.42
2018-05-01T10:33:02.850Z,63.35
2018-05-01T10:34:03.369Z,61.19
2018-05-01T10:35:03.264Z,58.61
2018-05-01T10:36:03.320Z,60.58
2018-05-01T10:37:03.601Z,60.49
2018-05-01T10:38:03.816Z,60.90
2018-05-01T10:40:36.289Z,58.61
2018-05-01T10:41:36.445Z,60.11
2018-05-01T10:42:36.613Z,61.29
2018-05-01T10:43:36.769Z,60.42
2018-05-01T10:44:36.957Z,59.76
2018-05-01T10:45:39.030Z,59.38
2018-05-01T10:46:37.278Z,57.78
2018-05-01T10:47:38.439Z,56.63
2018-05-01T10:48:37.608Z,55.87
2018-05-01T10:49:37.769Z,55.11
2018-05-01T10:50:37.934Z,54.53
2018-05-01T10:51:39.103Z,55.68
2018-05-01T10:52:38.265Z,57.78
2018-05-01T10:53:38.433Z,56.95
2018-05-01T10:54:38.662Z,53.80
2018-05-01T10:57:21.074Z,51.79
2018-05-01T10:58:21.244Z,53.51
2018-05-01T10:59:22.393Z,51.57
2018-05-01T11:00:21.572Z,49.47
2018-05-01T11:01:21.714Z,48.90
2018-05-01T11:02:22.065Z,48.23
2018-05-01T11:03:22.904Z,47.87
2018-05-01T11:04:22.206Z,47.58
2018-05-01T11:05:25.359Z,47.97
2018-05-01T11:06:23.384Z,48.83
2018-05-01T11:08:54.791Z,44.72
2018-05-01T11:09:54.995Z,44.65
2018-05-01T11:10:56.811Z,44.72
2018-05-01T11:11:56.370Z,46.25
2018-05-01T11:12:55.474Z,46.82
2018-05-01T11:13:55.643Z,47.58
2018-05-01T11:14:55.796Z,46.46
2018-05-01T11:15:56.007Z,45.31
2018-05-01T11:16:56.129Z,43.69
2018-05-01T11:17:56.819Z,43.71
2018-05-01T11:18:56.493Z,41.03
2018-05-01T11:19:56.657Z,40.25
2018-05-01T11:20:56.820Z,40.75
2018-05-01T11:21:56.978Z,40.65
2018-05-01T11:22:57.147Z,40.36
2018-05-01T11:25:39.417Z,39.67
2018-05-01T11:26:39.604Z,40.25
2018-05-01T11:27:40.369Z,40.17
2018-05-01T11:30:11.571Z,39.89
2018-05-01T11:31:11.733Z,39.12
2018-05-01T11:32:11.898Z,38.83
2018-05-01T11:33:12.065Z,38.71
2018-05-01T11:34:12.232Z,39.58
2018-05-01T11:35:12.394Z,40.15
2018-05-01T11:36:12.555Z,40.44
2018-05-01T11:37:12.723Z,40.34
2018-05-01T11:38:12.916Z,40.34
2018-05-01T11:39:13.092Z,40.72
2018-05-01T11:40:13.255Z,40.72
2018-05-01T11:41:13.425Z,40.82
2018-05-01T11:42:13.637Z,40.72
2018-05-01T11:43:13.899Z,40.82
2018-05-01T11:44:13.936Z,40.08
2018-05-01T11:46:56.348Z,39.69
2018-05-01T11:47:56.392Z,39.10
2018-05-01T11:48:56.579Z,39.10
2018-05-01T11:49:57.317Z,39.20
2018-05-01T11:50:56.948Z,39.67
2018-05-01T11:51:57.112Z,39.58
2018-05-01T11:52:57.277Z,39.20
2018-05-01T11:53:57.471Z,39.86
2018-05-01T11:54:57.631Z,39.10
2018-05-01T11:56:05.239Z,38.71
2018-05-01T11:56:57.922Z,38.24
2018-05-01T11:57:58.093Z,38.14
2018-05-01T11:58:58.257Z,37.95
2018-05-01T11:59:58.421Z,38.17
2018-05-01T12:00:58.823Z,38.93
2018-05-01T12:02:06.779Z,38.93
2018-05-01T12:02:58.989Z,39.12
2018-05-01T12:03:59.800Z,37.78
2018-05-01T12:04:59.326Z,37.40
2018-05-01T12:05:59.499Z,37.40
2018-05-01T12:06:59.659Z,37.97
2018-05-01T12:07:59.824Z,37.41
2018-05-01T12:08:59.984Z,37.40
2018-05-01T12:10:00.146Z,37.88
2018-05-01T12:11:00.306Z,38.47
2018-05-01T12:15:26.879Z,37.49
2018-05-01T12:16:26.166Z,37.21
2018-05-01T12:17:26.334Z,38.17
2018-05-01T12:18:26.487Z,37.95
2018-05-01T12:19:34.624Z,38.81
2018-05-01T12:20:26.774Z,39.29
2018-05-01T12:21:26.937Z,39.79
2018-05-01T12:22:27.096Z,39.69
2018-05-01T12:23:27.343Z,39.00
2018-05-01T12:24:36.409Z,39.58
2018-05-01T12:25:27.573Z,39.29
2018-05-01T12:26:27.739Z,39.69
2018-05-01T12:27:27.928Z,38.93
2018-05-01T12:28:28.106Z,38.83
2018-05-01T12:29:28.274Z,38.83
2018-05-01T12:30:28.474Z,39.03
2018-05-01T12:31:28.679Z,39.69
2018-05-01T12:32:28.805Z,38.93
2018-05-01T12:33:28.969Z,37.97
2018-05-01T12:34:29.136Z,38.17
2018-05-01T12:37:11.426Z,38.93
2018-05-01T12:38:11.667Z,38.64
2018-05-01T12:39:11.762Z,38.64
2018-05-01T12:40:11.964Z,37.97
2018-05-01T12:41:12.180Z,37.80
2018-05-01T12:42:12.360Z,37.32
2018-05-01T12:43:12.463Z,36.84
2018-05-01T12:44:12.631Z,36.94
2018-05-01T12:45:12.847Z,37.30
2018-05-01T12:46:13.049Z,37.49
2018-05-01T12:47:13.217Z,37.21
2018-05-01T12:48:13.549Z,37.59
2018-05-01T12:49:13.619Z,37.49
2018-05-01T12:50:13.810Z,36.82
2018-05-01T12:51:13.838Z,37.02
2018-05-01T12:53:56.164Z,37.68
2018-05-01T12:54:56.359Z,37.70
2018-05-01T12:55:56.500Z,37.04
2018-05-01T12:56:56.645Z,36.27
2018-05-01T12:57:56.877Z,36.35
2018-05-01T12:58:56.964Z,36.73
2018-05-01T12:59:57.183Z,37.70
2018-05-01T13:00:57.308Z,37.32
2018-05-01T13:01:57.448Z,37.11
2018-05-01T13:02:57.630Z,37.23
2018-05-01T13:04:05.754Z,36.94
2018-05-01T13:04:57.916Z,36.55
2018-05-01T13:06:00.725Z,36.46
2018-05-01T13:06:58.195Z,36.27
2018-05-01T13:07:58.363Z,36.46
2018-05-01T13:09:00.156Z,36.36
2018-05-01T13:09:58.815Z,36.65
2018-05-01T13:10:58.880Z,36.55
2018-05-01T13:12:00.656Z,36.65
2018-05-01T13:12:59.212Z,38.47
2018-05-01T13:13:59.375Z,37.13
2018-05-01T13:14:59.578Z,37.04
2018-05-01T13:15:59.730Z,36.84
2018-05-01T13:17:00.028Z,36.65
2018-05-01T13:18:00.059Z,36.55
2018-05-01T13:19:00.231Z,36.94
2018-05-01T13:21:45.548Z,36.00
2018-05-01T13:22:45.913Z,35.88
2018-05-01T13:23:47.511Z,36.27
2018-05-01T13:24:46.061Z,35.88
2018-05-01T13:25:46.219Z,36.17
2018-05-01T13:26:49.021Z,36.27
2018-05-01T13:27:46.611Z,36.17
2018-05-01T13:28:48.521Z,36.55
2018-05-01T13:29:46.917Z,36.67
2018-05-01T13:30:51.022Z,36.65
2018-05-01T13:33:19.432Z,37.15
2018-05-01T13:34:19.600Z,36.47
2018-05-01T13:35:19.791Z,36.55
2018-05-01T13:36:27.715Z,36.44
2018-05-01T13:37:20.124Z,37.11
2018-05-01T13:38:20.288Z,37.30
2018-05-01T13:39:20.456Z,37.59
2018-05-01T13:40:20.619Z,37.49
2018-05-01T13:41:20.783Z,37.40
2018-05-01T13:42:20.950Z,36.65
2018-05-01T13:43:21.117Z,36.17
2018-05-01T13:44:21.969Z,36.65
2018-05-01T13:45:21.417Z,35.88
2018-05-01T13:46:22.470Z,35.98
2018-05-01T13:47:21.759Z,35.61
2018-05-01T13:48:21.929Z,35.81
2018-05-01T13:49:22.091Z,35.88
2018-05-01T13:50:22.263Z,36.29
2018-05-01T13:51:22.424Z,36.57
2018-05-01T13:54:05.666Z,35.79
2018-05-01T13:55:05.829Z,35.41
2018-05-01T13:56:05.997Z,35.31
2018-05-01T13:57:06.166Z,34.93
2018-05-01T13:58:06.328Z,35.41
2018-05-01T13:59:06.493Z,35.96
2018-05-01T14:00:06.695Z,36.73
2018-05-01T14:01:06.836Z,37.61
2018-05-01T14:02:07.126Z,38.18
2018-05-01T14:03:07.234Z,38.85
2018-05-01T14:04:07.437Z,38.18
2018-05-01T14:05:07.478Z,38.28
2018-05-01T14:06:07.659Z,37.80
2018-05-01T14:07:07.893Z,37.72
2018-05-01T14:08:07.917Z,37.63
2018-05-01T14:11:58.795Z,37.41
2018-05-01T14:12:58.591Z,37.99
2018-05-01T14:13:58.773Z,37.80
2018-05-01T14:15:00.767Z,37.59
2018-05-01T14:15:59.058Z,38.35
2018-05-01T14:16:59.227Z,37.88
2018-05-01T14:17:59.392Z,38.64
2018-05-01T14:18:59.616Z,38.17
2018-05-01T14:19:59.730Z,38.45
2018-05-01T14:20:59.883Z,38.74
2018-05-01T14:23:32.176Z,38.47
2018-05-01T14:24:32.334Z,37.41
2018-05-01T14:25:32.596Z,37.61
2018-05-01T14:26:32.690Z,37.41
2018-05-01T14:27:32.829Z,37.72
2018-05-01T14:28:33.034Z,36.57
2018-05-01T14:29:33.202Z,35.81
2018-05-01T14:30:33.380Z,36.47
2018-05-01T14:31:33.594Z,36.00
2018-05-01T14:32:33.804Z,35.71
2018-05-01T14:35:16.129Z,37.51
2018-05-01T14:36:16.381Z,37.51
2018-05-01T14:37:16.332Z,37.90
2018-05-01T14:39:48.864Z,38.20
2018-05-01T14:40:49.031Z,37.90